sensor_id;sensor_type;location;lat;lon;timestamp;P1;durP1;ratioP1;P2;durP2;ratioP2
20324;SDS011;10320;49.482;11.256;2022-09-13T00:00:47;14.20;;;12.33;;
20324;SDS011;10320;49.482;11.256;2022-09-13T00:03:13;16.27;;;12.00;;
20324;SDS011;10320;49.482;11.256;2022-09-13T00:05:39;15.87;;;12.23;;
20324;SDS011;10320;49.482;11.256;2022-09-13T00:08:06;16.13;;;12.87;;
20324;SDS011;10320;49.482;11.256;2022-09-13T00:10:33;15.13;;;12.77;;
20324;SDS011;10320;49.482;11.256;2022-09-13T00:12:59;14.17;;;12.70;;
20324;SDS011;10320;49.482;11.256;2022-09-13T00:15:25;15.07;;;13.30;;
20324;SDS011;10320;49.482;11.256;2022-09-13T00:17:51;18.53;;;12.77;;
20324;SDS011;10320;49.482;11.256;2022-09-13T00:20:18;15.33;;;12.23;;
20324;SDS011;10320;49.482;11.256;2022-09-13T00:22:44;16.03;;;12.17;;
20324;SDS011;10320;49.482;11.256;2022-09-13T00:25:10;20.10;;;14.23;;
20324;SDS011;10320;49.482;11.256;2022-09-13T00:27:37;18.27;;;13.43;;
20324;SDS011;10320;49.482;11.256;2022-09-13T00:30:04;17.10;;;12.40;;
20324;SDS011;10320;49.482;11.256;2022-09-13T00:32:30;15.77;;;13.07;;
20324;SDS011;10320;49.482;11.256;2022-09-13T00:34:56;16.60;;;13.27;;
20324;SDS011;10320;49.482;11.256;2022-09-13T00:37:22;15.63;;;12.93;;
20324;SDS011;10320;49.482;11.256;2022-09-13T00:39:48;16.80;;;12.80;;
20324;SDS011;10320;49.482;11.256;2022-09-13T00:42:14;15.10;;;13.50;;
20324;SDS011;10320;49.482;11.256;2022-09-13T00:52:44;16.33;;;13.80;;
20324;SDS011;10320;49.482;11.256;2022-09-13T00:55:20;18.00;;;13.83;;
20324;SDS011;10320;49.482;11.256;2022-09-13T00:57:48;14.27;;;12.77;;
20324;SDS011;10320;49.482;11.256;2022-09-13T01:00:15;17.27;;;12.70;;
20324;SDS011;10320;49.482;11.256;2022-09-13T01:02:45;18.57;;;13.47;;
20324;SDS011;10320;49.482;11.256;2022-09-13T01:05:12;15.90;;;13.93;;
20324;SDS011;10320;49.482;11.256;2022-09-13T01:07:39;16.83;;;14.30;;
20324;SDS011;10320;49.482;11.256;2022-09-13T01:10:06;17.03;;;13.30;;
20324;SDS011;10320;49.482;11.256;2022-09-13T01:12:41;15.80;;;13.60;;
20324;SDS011;10320;49.482;11.256;2022-09-13T01:15:10;16.27;;;12.63;;
20324;SDS011;10320;49.482;11.256;2022-09-13T01:17:37;15.80;;;12.47;;
20324;SDS011;10320;49.482;11.256;2022-09-13T01:20:04;16.43;;;13.37;;
20324;SDS011;10320;49.482;11.256;2022-09-13T01:25:05;18.17;;;13.47;;
20324;SDS011;10320;49.482;11.256;2022-09-13T01:37:53;19.87;;;13.90;;
20324;SDS011;10320;49.482;11.256;2022-09-13T01:50:40;16.77;;;12.97;;
20324;SDS011;10320;49.482;11.256;2022-09-13T02:01:12;16.70;;;12.70;;
20324;SDS011;10320;49.482;11.256;2022-09-13T02:03:43;16.57;;;13.33;;
20324;SDS011;10320;49.482;11.256;2022-09-13T02:06:11;15.13;;;12.00;;
20324;SDS011;10320;49.482;11.256;2022-09-13T02:08:46;17.33;;;12.90;;
20324;SDS011;10320;49.482;11.256;2022-09-13T02:11:14;16.80;;;12.90;;
20324;SDS011;10320;49.482;11.256;2022-09-13T02:14:06;17.23;;;13.20;;
20324;SDS011;10320;49.482;11.256;2022-09-13T02:16:38;17.20;;;12.33;;
20324;SDS011;10320;49.482;11.256;2022-09-13T02:19:10;18.80;;;13.07;;
20324;SDS011;10320;49.482;11.256;2022-09-13T02:21:39;14.70;;;12.53;;
20324;SDS011;10320;49.482;11.256;2022-09-13T02:24:15;15.47;;;12.70;;
20324;SDS011;10320;49.482;11.256;2022-09-13T02:26:42;17.00;;;13.27;;
20324;SDS011;10320;49.482;11.256;2022-09-13T02:29:11;18.47;;;13.83;;
20324;SDS011;10320;49.482;11.256;2022-09-13T02:31:42;15.93;;;13.60;;
20324;SDS011;10320;49.482;11.256;2022-09-13T02:34:44;15.63;;;12.50;;
20324;SDS011;10320;49.482;11.256;2022-09-13T02:37:04;14.67;;;13.07;;
20324;SDS011;10320;49.482;11.256;2022-09-13T02:39:31;17.07;;;13.40;;
20324;SDS011;10320;49.482;11.256;2022-09-13T02:42:09;16.00;;;13.17;;
20324;SDS011;10320;49.482;11.256;2022-09-13T02:44:39;14.50;;;12.60;;
20324;SDS011;10320;49.482;11.256;2022-09-13T02:54:48;13.97;;;12.43;;
20324;SDS011;10320;49.482;11.256;2022-09-13T02:57:18;15.70;;;13.77;;
20324;SDS011;10320;49.482;11.256;2022-09-13T02:59:46;17.20;;;13.27;;
20324;SDS011;10320;49.482;11.256;2022-09-13T03:02:13;19.73;;;14.33;;
20324;SDS011;10320;49.482;11.256;2022-09-13T03:04:40;15.90;;;13.93;;
20324;SDS011;10320;49.482;11.256;2022-09-13T03:07:10;17.00;;;13.30;;
20324;SDS011;10320;49.482;11.256;2022-09-13T03:09:38;15.73;;;12.93;;
20324;SDS011;10320;49.482;11.256;2022-09-13T03:15:01;18.33;;;13.23;;
20324;SDS011;10320;49.482;11.256;2022-09-13T03:17:43;19.37;;;13.63;;
20324;SDS011;10320;49.482;11.256;2022-09-13T03:27:46;17.93;;;13.50;;
20324;SDS011;10320;49.482;11.256;2022-09-13T03:30:16;17.90;;;13.20;;
20324;SDS011;10320;49.482;11.256;2022-09-13T03:33:04;17.63;;;14.00;;
20324;SDS011;10320;49.482;11.256;2022-09-13T03:35:48;17.03;;;13.90;;
20324;SDS011;10320;49.482;11.256;2022-09-13T03:38:18;18.13;;;13.73;;
20324;SDS011;10320;49.482;11.256;2022-09-13T03:40:56;17.03;;;13.37;;
20324;SDS011;10320;49.482;11.256;2022-09-13T03:45:59;18.80;;;13.97;;
20324;SDS011;10320;49.482;11.256;2022-09-13T03:48:29;19.97;;;14.23;;
20324;SDS011;10320;49.482;11.256;2022-09-13T03:50:55;18.17;;;14.00;;
20324;SDS011;10320;49.482;11.256;2022-09-13T03:53:22;17.90;;;12.93;;
20324;SDS011;10320;49.482;11.256;2022-09-13T03:55:50;19.30;;;14.30;;
20324;SDS011;10320;49.482;11.256;2022-09-13T03:58:17;17.97;;;14.23;;
20324;SDS011;10320;49.482;11.256;2022-09-13T04:00:43;17.43;;;13.77;;
20324;SDS011;10320;49.482;11.256;2022-09-13T04:03:10;19.97;;;13.93;;
20324;SDS011;10320;49.482;11.256;2022-09-13T04:05:36;17.00;;;13.23;;
20324;SDS011;10320;49.482;11.256;2022-09-13T04:08:03;18.20;;;14.07;;
20324;SDS011;10320;49.482;11.256;2022-09-13T04:10:30;17.13;;;13.90;;
20324;SDS011;10320;49.482;11.256;2022-09-13T04:12:56;21.73;;;13.33;;
20324;SDS011;10320;49.482;11.256;2022-09-13T04:15:23;20.00;;;13.27;;
20324;SDS011;10320;49.482;11.256;2022-09-13T04:17:49;17.00;;;13.37;;
20324;SDS011;10320;49.482;11.256;2022-09-13T04:20:15;19.53;;;13.93;;
20324;SDS011;10320;49.482;11.256;2022-09-13T04:22:42;17.60;;;14.13;;
20324;SDS011;10320;49.482;11.256;2022-09-13T04:25:08;18.13;;;13.90;;
20324;SDS011;10320;49.482;11.256;2022-09-13T04:27:34;18.00;;;14.30;;
20324;SDS011;10320;49.482;11.256;2022-09-13T04:30:00;18.57;;;15.00;;
20324;SDS011;10320;49.482;11.256;2022-09-13T04:32:26;17.57;;;14.07;;
20324;SDS011;10320;49.482;11.256;2022-09-13T04:34:53;18.73;;;14.40;;
20324;SDS011;10320;49.482;11.256;2022-09-13T04:37:19;17.50;;;13.67;;
20324;SDS011;10320;49.482;11.256;2022-09-13T04:39:45;17.40;;;13.30;;
20324;SDS011;10320;49.482;11.256;2022-09-13T04:42:11;16.60;;;12.97;;
20324;SDS011;10320;49.482;11.256;2022-09-13T04:44:38;17.30;;;13.17;;
20324;SDS011;10320;49.482;11.256;2022-09-13T04:47:05;18.53;;;14.43;;
20324;SDS011;10320;49.482;11.256;2022-09-13T04:49:32;15.30;;;12.87;;
20324;SDS011;10320;49.482;11.256;2022-09-13T04:51:58;16.70;;;13.47;;
20324;SDS011;10320;49.482;11.256;2022-09-13T04:54:24;20.90;;;13.37;;
20324;SDS011;10320;49.482;11.256;2022-09-13T04:56:50;20.23;;;13.90;;
20324;SDS011;10320;49.482;11.256;2022-09-13T04:59:16;15.73;;;14.03;;
20324;SDS011;10320;49.482;11.256;2022-09-13T05:01:42;16.27;;;13.80;;
20324;SDS011;10320;49.482;11.256;2022-09-13T05:04:08;17.37;;;13.30;;
20324;SDS011;10320;49.482;11.256;2022-09-13T05:06:34;14.97;;;12.23;;
20324;SDS011;10320;49.482;11.256;2022-09-13T05:09:00;18.47;;;14.13;;
20324;SDS011;10320;49.482;11.256;2022-09-13T05:11:27;17.27;;;13.97;;
20324;SDS011;10320;49.482;11.256;2022-09-13T05:13:54;18.67;;;14.27;;
20324;SDS011;10320;49.482;11.256;2022-09-13T05:16:21;16.23;;;13.03;;
20324;SDS011;10320;49.482;11.256;2022-09-13T05:18:48;18.63;;;13.57;;
20324;SDS011;10320;49.482;11.256;2022-09-13T05:21:15;15.03;;;13.13;;
20324;SDS011;10320;49.482;11.256;2022-09-13T05:23:41;18.97;;;14.03;;
20324;SDS011;10320;49.482;11.256;2022-09-13T05:26:07;15.87;;;13.43;;
20324;SDS011;10320;49.482;11.256;2022-09-13T05:28:34;17.70;;;14.20;;
20324;SDS011;10320;49.482;11.256;2022-09-13T05:31:04;17.30;;;14.40;;
20324;SDS011;10320;49.482;11.256;2022-09-13T05:33:32;20.50;;;14.97;;
20324;SDS011;10320;49.482;11.256;2022-09-13T05:35:59;16.67;;;13.30;;
20324;SDS011;10320;49.482;11.256;2022-09-13T05:38:25;18.10;;;13.33;;
20324;SDS011;10320;49.482;11.256;2022-09-13T05:40:59;15.10;;;13.50;;
20324;SDS011;10320;49.482;11.256;2022-09-13T05:43:25;16.10;;;13.00;;
20324;SDS011;10320;49.482;11.256;2022-09-13T05:48:27;15.87;;;14.00;;
20324;SDS011;10320;49.482;11.256;2022-09-13T05:50:53;16.77;;;14.50;;
20324;SDS011;10320;49.482;11.256;2022-09-13T05:53:20;17.97;;;14.50;;
20324;SDS011;10320;49.482;11.256;2022-09-13T05:55:46;17.53;;;15.73;;
20324;SDS011;10320;49.482;11.256;2022-09-13T05:58:12;17.60;;;14.03;;
20324;SDS011;10320;49.482;11.256;2022-09-13T06:00:38;17.87;;;15.67;;
20324;SDS011;10320;49.482;11.256;2022-09-13T06:03:04;16.47;;;14.40;;
20324;SDS011;10320;49.482;11.256;2022-09-13T06:05:29;16.07;;;14.27;;
20324;SDS011;10320;49.482;11.256;2022-09-13T06:07:55;17.53;;;14.97;;
20324;SDS011;10320;49.482;11.256;2022-09-13T06:10:22;15.90;;;14.30;;
20324;SDS011;10320;49.482;11.256;2022-09-13T06:12:49;15.23;;;13.63;;
20324;SDS011;10320;49.482;11.256;2022-09-13T06:15:15;14.47;;;13.10;;
20324;SDS011;10320;49.482;11.256;2022-09-13T06:17:41;16.23;;;13.20;;
20324;SDS011;10320;49.482;11.256;2022-09-13T06:20:07;13.27;;;11.87;;
20324;SDS011;10320;49.482;11.256;2022-09-13T06:22:34;14.03;;;12.63;;
20324;SDS011;10320;49.482;11.256;2022-09-13T06:25:00;12.70;;;11.40;;
20324;SDS011;10320;49.482;11.256;2022-09-13T06:27:28;13.23;;;11.90;;
20324;SDS011;10320;49.482;11.256;2022-09-13T06:29:55;12.47;;;11.17;;
20324;SDS011;10320;49.482;11.256;2022-09-13T06:32:21;11.57;;;10.43;;
20324;SDS011;10320;49.482;11.256;2022-09-13T06:34:47;11.83;;;10.67;;
20324;SDS011;10320;49.482;11.256;2022-09-13T06:37:13;12.30;;;11.10;;
20324;SDS011;10320;49.482;11.256;2022-09-13T06:39:39;10.90;;;9.90;;
20324;SDS011;10320;49.482;11.256;2022-09-13T06:42:05;11.90;;;10.70;;
20324;SDS011;10320;49.482;11.256;2022-09-13T06:44:31;11.43;;;10.03;;
20324;SDS011;10320;49.482;11.256;2022-09-13T06:46:57;10.67;;;9.57;;
20324;SDS011;10320;49.482;11.256;2022-09-13T06:49:23;10.80;;;9.70;;
20324;SDS011;10320;49.482;11.256;2022-09-13T06:51:53;9.73;;;8.73;;
20324;SDS011;10320;49.482;11.256;2022-09-13T06:54:19;9.90;;;9.00;;
20324;SDS011;10320;49.482;11.256;2022-09-13T06:56:45;9.63;;;8.73;;
20324;SDS011;10320;49.482;11.256;2022-09-13T06:59:11;9.30;;;8.40;;
20324;SDS011;10320;49.482;11.256;2022-09-13T07:01:38;10.97;;;8.57;;
20324;SDS011;10320;49.482;11.256;2022-09-13T07:04:05;9.37;;;8.13;;
20324;SDS011;10320;49.482;11.256;2022-09-13T07:06:33;10.17;;;8.20;;
20324;SDS011;10320;49.482;11.256;2022-09-13T07:08:59;8.80;;;7.90;;
20324;SDS011;10320;49.482;11.256;2022-09-13T07:11:27;9.57;;;7.47;;
20324;SDS011;10320;49.482;11.256;2022-09-13T07:13:54;8.40;;;7.60;;
20324;SDS011;10320;49.482;11.256;2022-09-13T07:16:22;8.83;;;7.93;;
20324;SDS011;10320;49.482;11.256;2022-09-13T07:18:52;9.00;;;7.80;;
20324;SDS011;10320;49.482;11.256;2022-09-13T07:21:18;8.20;;;7.40;;
20324;SDS011;10320;49.482;11.256;2022-09-13T07:23:44;8.77;;;7.87;;
20324;SDS011;10320;49.482;11.256;2022-09-13T07:26:10;8.53;;;7.63;;
20324;SDS011;10320;49.482;11.256;2022-09-13T07:28:37;8.47;;;7.70;;
20324;SDS011;10320;49.482;11.256;2022-09-13T07:31:04;8.30;;;7.50;;
20324;SDS011;10320;49.482;11.256;2022-09-13T07:33:31;8.27;;;7.47;;
20324;SDS011;10320;49.482;11.256;2022-09-13T07:35:57;8.50;;;7.70;;
20324;SDS011;10320;49.482;11.256;2022-09-13T07:38:25;8.90;;;8.03;;
20324;SDS011;10320;49.482;11.256;2022-09-13T07:40:55;8.53;;;7.60;;
20324;SDS011;10320;49.482;11.256;2022-09-13T07:43:26;8.17;;;7.37;;
20324;SDS011;10320;49.482;11.256;2022-09-13T07:45:59;7.67;;;6.97;;
20324;SDS011;10320;49.482;11.256;2022-09-13T07:48:26;9.33;;;7.67;;
20324;SDS011;10320;49.482;11.256;2022-09-13T07:50:59;7.23;;;6.53;;
20324;SDS011;10320;49.482;11.256;2022-09-13T07:53:25;6.53;;;6.00;;
20324;SDS011;10320;49.482;11.256;2022-09-13T07:55:51;6.07;;;5.47;;
20324;SDS011;10320;49.482;11.256;2022-09-13T07:58:17;5.23;;;4.80;;
20324;SDS011;10320;49.482;11.256;2022-09-13T08:00:43;5.73;;;5.17;;
20324;SDS011;10320;49.482;11.256;2022-09-13T08:03:10;5.07;;;4.57;;
20324;SDS011;10320;49.482;11.256;2022-09-13T08:05:40;5.50;;;5.00;;
20324;SDS011;10320;49.482;11.256;2022-09-13T08:08:06;5.50;;;4.90;;
20324;SDS011;10320;49.482;11.256;2022-09-13T08:10:33;4.80;;;4.50;;
20324;SDS011;10320;49.482;11.256;2022-09-13T08:12:59;5.00;;;4.60;;
20324;SDS011;10320;49.482;11.256;2022-09-13T08:15:25;4.90;;;4.50;;
20324;SDS011;10320;49.482;11.256;2022-09-13T08:17:51;4.10;;;3.78;;
20324;SDS011;10320;49.482;11.256;2022-09-13T08:20:18;4.70;;;4.40;;
20324;SDS011;10320;49.482;11.256;2022-09-13T08:22:44;4.65;;;4.25;;
20324;SDS011;10320;49.482;11.256;2022-09-13T08:25:10;4.65;;;4.35;;
20324;SDS011;10320;49.482;11.256;2022-09-13T08:27:36;4.40;;;4.00;;
20324;SDS011;10320;49.482;11.256;2022-09-13T08:30:02;4.80;;;4.40;;
20324;SDS011;10320;49.482;11.256;2022-09-13T08:32:29;5.40;;;4.85;;
20324;SDS011;10320;49.482;11.256;2022-09-13T08:34:55;6.20;;;4.57;;
20324;SDS011;10320;49.482;11.256;2022-09-13T08:37:21;5.00;;;4.60;;
20324;SDS011;10320;49.482;11.256;2022-09-13T08:39:47;4.95;;;4.55;;
20324;SDS011;10320;49.482;11.256;2022-09-13T08:44:46;5.53;;;3.78;;
20324;SDS011;10320;49.482;11.256;2022-09-13T08:47:29;4.00;;;3.60;;
20324;SDS011;10320;49.482;11.256;2022-09-13T08:52:43;3.75;;;3.45;;
20324;SDS011;10320;49.482;11.256;2022-09-13T08:55:22;4.13;;;3.83;;
20324;SDS011;10320;49.482;11.256;2022-09-13T08:57:52;3.92;;;3.63;;
20324;SDS011;10320;49.482;11.256;2022-09-13T09:00:20;5.03;;;4.00;;
20324;SDS011;10320;49.482;11.256;2022-09-13T09:05:28;4.70;;;4.10;;
20324;SDS011;10320;49.482;11.256;2022-09-13T09:10:24;4.55;;;3.47;;
20324;SDS011;10320;49.482;11.256;2022-09-13T09:12:57;4.07;;;3.67;;
20324;SDS011;10320;49.482;11.256;2022-09-13T09:15:25;6.07;;;3.60;;
20324;SDS011;10320;49.482;11.256;2022-09-13T09:20:22;4.00;;;3.60;;
20324;SDS011;10320;49.482;11.256;2022-09-13T09:22:49;4.70;;;3.75;;
20324;SDS011;10320;49.482;11.256;2022-09-13T09:25:16;4.25;;;3.88;;
20324;SDS011;10320;49.482;11.256;2022-09-13T09:27:42;4.05;;;3.75;;
20324;SDS011;10320;49.482;11.256;2022-09-13T09:30:11;4.07;;;3.78;;
20324;SDS011;10320;49.482;11.256;2022-09-13T09:38:01;4.97;;;3.67;;
20324;SDS011;10320;49.482;11.256;2022-09-13T09:40:32;4.05;;;3.65;;
20324;SDS011;10320;49.482;11.256;2022-09-13T09:43:08;4.57;;;3.67;;
20324;SDS011;10320;49.482;11.256;2022-09-13T09:45:36;5.43;;;3.55;;
20324;SDS011;10320;49.482;11.256;2022-09-13T09:48:06;3.67;;;3.42;;
20324;SDS011;10320;49.482;11.256;2022-09-13T09:50:37;3.97;;;3.58;;
20324;SDS011;10320;49.482;11.256;2022-09-13T09:53:07;4.50;;;4.10;;
20324;SDS011;10320;49.482;11.256;2022-09-13T09:58:16;4.00;;;3.70;;
20324;SDS011;10320;49.482;11.256;2022-09-13T10:00:56;4.85;;;4.43;;
20324;SDS011;10320;49.482;11.256;2022-09-13T10:03:24;8.65;;;4.20;;
20324;SDS011;10320;49.482;11.256;2022-09-13T10:06:01;5.90;;;4.50;;
20324;SDS011;10320;49.482;11.256;2022-09-13T10:08:29;4.93;;;4.35;;
20324;SDS011;10320;49.482;11.256;2022-09-13T10:10:56;4.40;;;4.00;;
20324;SDS011;10320;49.482;11.256;2022-09-13T10:13:24;6.03;;;4.22;;
20324;SDS011;10320;49.482;11.256;2022-09-13T10:15:51;4.78;;;4.18;;
20324;SDS011;10320;49.482;11.256;2022-09-13T10:18:19;6.60;;;4.10;;
20324;SDS011;10320;49.482;11.256;2022-09-13T10:21:05;3.97;;;3.67;;
20324;SDS011;10320;49.482;11.256;2022-09-13T10:23:35;3.47;;;3.17;;
20324;SDS011;10320;49.482;11.256;2022-09-13T10:26:06;3.30;;;2.92;;
20324;SDS011;10320;49.482;11.256;2022-09-13T10:28:48;3.47;;;3.20;;
20324;SDS011;10320;49.482;11.256;2022-09-13T10:31:17;3.35;;;3.08;;
20324;SDS011;10320;49.482;11.256;2022-09-13T10:33:55;3.30;;;3.10;;
20324;SDS011;10320;49.482;11.256;2022-09-13T10:36:24;3.65;;;3.13;;
20324;SDS011;10320;49.482;11.256;2022-09-13T10:39:01;3.63;;;3.33;;
20324;SDS011;10320;49.482;11.256;2022-09-13T10:41:29;3.55;;;3.25;;
20324;SDS011;10320;49.482;11.256;2022-09-13T10:43:59;3.75;;;3.42;;
20324;SDS011;10320;49.482;11.256;2022-09-13T10:46:26;4.97;;;3.08;;
20324;SDS011;10320;49.482;11.256;2022-09-13T10:48:53;3.20;;;2.90;;
20324;SDS011;10320;49.482;11.256;2022-09-13T10:51:28;3.10;;;2.90;;
20324;SDS011;10320;49.482;11.256;2022-09-13T10:54:15;3.22;;;2.92;;
20324;SDS011;10320;49.482;11.256;2022-09-13T10:56:42;3.08;;;2.70;;
20324;SDS011;10320;49.482;11.256;2022-09-13T10:59:25;2.90;;;2.70;;
20324;SDS011;10320;49.482;11.256;2022-09-13T11:02:10;3.00;;;2.80;;
20324;SDS011;10320;49.482;11.256;2022-09-13T11:10:02;3.28;;;3.03;;
20324;SDS011;10320;49.482;11.256;2022-09-13T11:12:39;2.97;;;2.72;;
20324;SDS011;10320;49.482;11.256;2022-09-13T11:35:52;6.03;;;3.13;;
20324;SDS011;10320;49.482;11.256;2022-09-13T11:56:29;2.70;;;2.50;;
20324;SDS011;10320;49.482;11.256;2022-09-13T11:58:52;2.53;;;2.33;;
20324;SDS011;10320;49.482;11.256;2022-09-13T12:01:34;3.13;;;2.83;;
20324;SDS011;10320;49.482;11.256;2022-09-13T12:04:07;2.67;;;2.47;;
20324;SDS011;10320;49.482;11.256;2022-09-13T12:07:09;2.70;;;2.47;;
20324;SDS011;10320;49.482;11.256;2022-09-13T12:10:14;2.85;;;2.65;;
20324;SDS011;10320;49.482;11.256;2022-09-13T12:12:14;3.38;;;2.60;;
20324;SDS011;10320;49.482;11.256;2022-09-13T12:17:26;3.88;;;2.97;;
20324;SDS011;10320;49.482;11.256;2022-09-13T12:19:54;3.88;;;3.03;;
20324;SDS011;10320;49.482;11.256;2022-09-13T12:22:22;3.13;;;2.80;;
20324;SDS011;10320;49.482;11.256;2022-09-13T12:24:52;3.33;;;3.03;;
20324;SDS011;10320;49.482;11.256;2022-09-13T12:27:28;3.45;;;2.97;;
20324;SDS011;10320;49.482;11.256;2022-09-13T12:30:02;6.03;;;2.90;;
20324;SDS011;10320;49.482;11.256;2022-09-13T12:32:29;3.05;;;2.67;;
20324;SDS011;10320;49.482;11.256;2022-09-13T12:42:40;4.90;;;3.05;;
20324;SDS011;10320;49.482;11.256;2022-09-13T12:56:09;3.47;;;3.17;;
20324;SDS011;10320;49.482;11.256;2022-09-13T12:58:53;3.10;;;2.80;;
20324;SDS011;10320;49.482;11.256;2022-09-13T13:01:22;3.13;;;2.90;;
20324;SDS011;10320;49.482;11.256;2022-09-13T13:03:53;3.72;;;3.10;;
20324;SDS011;10320;49.482;11.256;2022-09-13T13:11:45;3.40;;;3.10;;
20324;SDS011;10320;49.482;11.256;2022-09-13T13:14:26;3.88;;;3.10;;
20324;SDS011;10320;49.482;11.256;2022-09-13T13:16:53;3.45;;;3.17;;
20324;SDS011;10320;49.482;11.256;2022-09-13T13:19:32;4.47;;;3.15;;
20324;SDS011;10320;49.482;11.256;2022-09-13T13:24:44;3.90;;;3.45;;
20324;SDS011;10320;49.482;11.256;2022-09-13T13:27:44;5.15;;;3.40;;
20324;SDS011;10320;49.482;11.256;2022-09-13T13:35:46;3.30;;;3.00;;
20324;SDS011;10320;49.482;11.256;2022-09-13T13:38:14;3.08;;;2.88;;
20324;SDS011;10320;49.482;11.256;2022-09-13T13:40:40;3.50;;;3.20;;
20324;SDS011;10320;49.482;11.256;2022-09-13T13:43:16;3.00;;;2.80;;
20324;SDS011;10320;49.482;11.256;2022-09-13T13:48:50;3.40;;;3.10;;
20324;SDS011;10320;49.482;11.256;2022-09-13T13:51:18;3.50;;;3.20;;
20324;SDS011;10320;49.482;11.256;2022-09-13T13:53:52;3.50;;;3.20;;
20324;SDS011;10320;49.482;11.256;2022-09-13T13:56:20;2.90;;;2.60;;
20324;SDS011;10320;49.482;11.256;2022-09-13T13:58:54;3.42;;;3.13;;
20324;SDS011;10320;49.482;11.256;2022-09-13T14:01:22;3.30;;;3.00;;
20324;SDS011;10320;49.482;11.256;2022-09-13T14:08:58;3.80;;;3.33;;
20324;SDS011;10320;49.482;11.256;2022-09-13T14:14:15;3.92;;;3.53;;
20324;SDS011;10320;49.482;11.256;2022-09-13T14:19:23;3.47;;;3.22;;
20324;SDS011;10320;49.482;11.256;2022-09-13T14:24:35;3.90;;;3.50;;
20324;SDS011;10320;49.482;11.256;2022-09-13T14:27:02;3.30;;;3.10;;
20324;SDS011;10320;49.482;11.256;2022-09-13T14:29:29;3.72;;;3.42;;
20324;SDS011;10320;49.482;11.256;2022-09-13T14:32:05;3.97;;;3.63;;
20324;SDS011;10320;49.482;11.256;2022-09-13T14:34:35;4.05;;;3.65;;
20324;SDS011;10320;49.482;11.256;2022-09-13T14:37:04;3.65;;;3.40;;
20324;SDS011;10320;49.482;11.256;2022-09-13T14:39:31;3.92;;;3.58;;
20324;SDS011;10320;49.482;11.256;2022-09-13T14:42:14;3.83;;;3.53;;
20324;SDS011;10320;49.482;11.256;2022-09-13T14:44:44;4.43;;;3.33;;
20324;SDS011;10320;49.482;11.256;2022-09-13T14:47:27;5.13;;;3.10;;
20324;SDS011;10320;49.482;11.256;2022-09-13T14:50:02;3.67;;;3.30;;
20324;SDS011;10320;49.482;11.256;2022-09-13T14:52:30;4.45;;;4.00;;
20324;SDS011;10320;49.482;11.256;2022-09-13T14:54:58;4.40;;;3.80;;
20324;SDS011;10320;49.482;11.256;2022-09-13T14:57:29;3.80;;;3.50;;
20324;SDS011;10320;49.482;11.256;2022-09-13T14:59:59;4.03;;;3.67;;
20324;SDS011;10320;49.482;11.256;2022-09-13T15:02:26;3.85;;;3.50;;
20324;SDS011;10320;49.482;11.256;2022-09-13T15:04:55;3.72;;;3.42;;
20324;SDS011;10320;49.482;11.256;2022-09-13T15:07:32;3.88;;;3.58;;
20324;SDS011;10320;49.482;11.256;2022-09-13T15:15:20;4.00;;;3.63;;
20324;SDS011;10320;49.482;11.256;2022-09-13T15:17:50;3.78;;;3.47;;
20324;SDS011;10320;49.482;11.256;2022-09-13T15:20:16;4.07;;;3.70;;
20324;SDS011;10320;49.482;11.256;2022-09-13T15:22:43;3.80;;;3.45;;
20324;SDS011;10320;49.482;11.256;2022-09-13T15:25:17;3.78;;;3.50;;
20324;SDS011;10320;49.482;11.256;2022-09-13T15:27:45;3.58;;;3.20;;
20324;SDS011;10320;49.482;11.256;2022-09-13T15:30:18;4.45;;;3.40;;
20324;SDS011;10320;49.482;11.256;2022-09-13T15:32:44;3.63;;;3.33;;
20324;SDS011;10320;49.482;11.256;2022-09-13T15:37:42;3.40;;;3.20;;
20324;SDS011;10320;49.482;11.256;2022-09-13T15:40:16;4.03;;;3.50;;
20324;SDS011;10320;49.482;11.256;2022-09-13T15:42:50;3.70;;;3.38;;
20324;SDS011;10320;49.482;11.256;2022-09-13T15:45:17;3.88;;;3.50;;
20324;SDS011;10320;49.482;11.256;2022-09-13T15:47:44;3.50;;;3.17;;
20324;SDS011;10320;49.482;11.256;2022-09-13T15:50:24;3.80;;;3.50;;
20324;SDS011;10320;49.482;11.256;2022-09-13T15:52:51;3.78;;;3.42;;
20324;SDS011;10320;49.482;11.256;2022-09-13T15:55:18;4.47;;;3.63;;
20324;SDS011;10320;49.482;11.256;2022-09-13T15:57:44;4.20;;;3.75;;
20324;SDS011;10320;49.482;11.256;2022-09-13T16:00:28;4.78;;;3.97;;
20324;SDS011;10320;49.482;11.256;2022-09-13T16:02:54;5.93;;;4.25;;
20324;SDS011;10320;49.482;11.256;2022-09-13T16:05:21;4.20;;;3.78;;
20324;SDS011;10320;49.482;11.256;2022-09-13T16:07:47;5.20;;;3.60;;
20324;SDS011;10320;49.482;11.256;2022-09-13T16:10:15;6.68;;;3.67;;
20324;SDS011;10320;49.482;11.256;2022-09-13T16:12:41;4.00;;;3.70;;
20324;SDS011;10320;49.482;11.256;2022-09-13T16:15:08;3.63;;;3.30;;
20324;SDS011;10320;49.482;11.256;2022-09-13T16:17:34;5.30;;;4.00;;
20324;SDS011;10320;49.482;11.256;2022-09-13T16:20:00;4.47;;;4.05;;
20324;SDS011;10320;49.482;11.256;2022-09-13T16:22:26;4.93;;;3.58;;
20324;SDS011;10320;49.482;11.256;2022-09-13T16:24:52;4.28;;;3.97;;
20324;SDS011;10320;49.482;11.256;2022-09-13T16:27:18;4.22;;;3.83;;
20324;SDS011;10320;49.482;11.256;2022-09-13T16:29:45;3.70;;;3.40;;
20324;SDS011;10320;49.482;11.256;2022-09-13T16:32:11;4.72;;;3.47;;
20324;SDS011;10320;49.482;11.256;2022-09-13T16:34:37;5.38;;;3.83;;
20324;SDS011;10320;49.482;11.256;2022-09-13T16:37:03;4.30;;;3.92;;
20324;SDS011;10320;49.482;11.256;2022-09-13T16:39:31;5.00;;;4.60;;
20324;SDS011;10320;49.482;11.256;2022-09-13T16:41:56;5.00;;;4.45;;
20324;SDS011;10320;49.482;11.256;2022-09-13T16:44:23;4.60;;;4.20;;
20324;SDS011;10320;49.482;11.256;2022-09-13T16:46:49;5.13;;;4.53;;
20324;SDS011;10320;49.482;11.256;2022-09-13T16:49:15;4.30;;;3.90;;
20324;SDS011;10320;49.482;11.256;2022-09-13T16:51:41;5.57;;;4.20;;
20324;SDS011;10320;49.482;11.256;2022-09-13T16:54:07;4.70;;;4.30;;
20324;SDS011;10320;49.482;11.256;2022-09-13T16:56:33;6.15;;;4.35;;
20324;SDS011;10320;49.482;11.256;2022-09-13T16:58:59;5.05;;;4.20;;
20324;SDS011;10320;49.482;11.256;2022-09-13T17:01:25;4.20;;;3.90;;
20324;SDS011;10320;49.482;11.256;2022-09-13T17:03:52;4.57;;;4.18;;
20324;SDS011;10320;49.482;11.256;2022-09-13T17:06:18;4.75;;;4.35;;
20324;SDS011;10320;49.482;11.256;2022-09-13T17:08:52;4.78;;;4.32;;
20324;SDS011;10320;49.482;11.256;2022-09-13T17:11:20;4.68;;;4.25;;
20324;SDS011;10320;49.482;11.256;2022-09-13T17:13:46;5.00;;;4.60;;
20324;SDS011;10320;49.482;11.256;2022-09-13T17:18:48;5.97;;;4.72;;
20324;SDS011;10320;49.482;11.256;2022-09-13T17:21:14;4.82;;;3.92;;
20324;SDS011;10320;49.482;11.256;2022-09-13T17:23:40;5.18;;;4.78;;
20324;SDS011;10320;49.482;11.256;2022-09-13T17:26:06;5.30;;;4.90;;
20324;SDS011;10320;49.482;11.256;2022-09-13T17:28:32;5.50;;;5.00;;
20324;SDS011;10320;49.482;11.256;2022-09-13T17:31:00;6.05;;;5.55;;
20324;SDS011;10320;49.482;11.256;2022-09-13T17:33:26;5.85;;;5.35;;
20324;SDS011;10320;49.482;11.256;2022-09-13T17:35:59;6.20;;;5.30;;
20324;SDS011;10320;49.482;11.256;2022-09-13T17:38:25;5.87;;;5.30;;
20324;SDS011;10320;49.482;11.256;2022-09-13T17:41:02;6.15;;;5.65;;
20324;SDS011;10320;49.482;11.256;2022-09-13T17:43:28;6.60;;;6.00;;